sensor_id;sensor_type;location;lat;lon;timestamp;P1;durP1;ratioP1;P2;durP2;ratioP2
40867;SDS011;26586;50.708;22.412;2022-11-09T00:01:34;14.95;;;9.45;;
40867;SDS011;26586;50.708;22.412;2022-11-09T00:04:01;15.02;;;9.88;;
40867;SDS011;26586;50.708;22.412;2022-11-09T00:06:28;16.88;;;9.77;;
40867;SDS011;26586;50.708;22.412;2022-11-09T00:11:22;15.38;;;9.32;;
40867;SDS011;26586;50.708;22.412;2022-11-09T00:13:48;15.47;;;9.80;;
40867;SDS011;26586;50.708;22.412;2022-11-09T00:16:16;14.88;;;9.32;;
40867;SDS011;26586;50.708;22.412;2022-11-09T00:18:43;16.90;;;9.15;;
40867;SDS011;26586;50.708;22.412;2022-11-09T00:21:22;17.20;;;9.70;;
40867;SDS011;26586;50.708;22.412;2022-11-09T00:23:49;13.07;;;9.33;;
40867;SDS011;26586;50.708;22.412;2022-11-09T00:26:16;16.08;;;9.40;;
40867;SDS011;26586;50.708;22.412;2022-11-09T00:28:44;16.95;;;10.00;;
40867;SDS011;26586;50.708;22.412;2022-11-09T00:31:11;18.77;;;9.85;;
40867;SDS011;26586;50.708;22.412;2022-11-09T00:33:40;16.33;;;9.60;;
40867;SDS011;26586;50.708;22.412;2022-11-09T00:36:08;16.73;;;9.43;;
40867;SDS011;26586;50.708;22.412;2022-11-09T00:38:36;13.93;;;8.63;;
40867;SDS011;26586;50.708;22.412;2022-11-09T00:41:06;14.45;;;9.35;;
40867;SDS011;26586;50.708;22.412;2022-11-09T00:43:33;13.70;;;8.93;;
40867;SDS011;26586;50.708;22.412;2022-11-09T00:46:00;12.73;;;9.07;;
40867;SDS011;26586;50.708;22.412;2022-11-09T00:48:26;11.35;;;8.45;;
40867;SDS011;26586;50.708;22.412;2022-11-09T00:50:53;14.30;;;8.33;;
40867;SDS011;26586;50.708;22.412;2022-11-09T00:53:21;15.95;;;9.95;;
40867;SDS011;26586;50.708;22.412;2022-11-09T00:58:28;13.50;;;8.57;;
40867;SDS011;26586;50.708;22.412;2022-11-09T01:00:56;15.15;;;9.45;;
40867;SDS011;26586;50.708;22.412;2022-11-09T01:03:23;12.25;;;8.95;;
40867;SDS011;26586;50.708;22.412;2022-11-09T01:05:50;12.90;;;8.38;;
40867;SDS011;26586;50.708;22.412;2022-11-09T01:08:17;13.27;;;8.60;;
40867;SDS011;26586;50.708;22.412;2022-11-09T01:15:39;11.88;;;7.07;;
40867;SDS011;26586;50.708;22.412;2022-11-09T01:18:09;12.15;;;8.43;;
40867;SDS011;26586;50.708;22.412;2022-11-09T01:20:40;11.98;;;7.47;;
40867;SDS011;26586;50.708;22.412;2022-11-09T01:23:07;13.55;;;8.25;;
40867;SDS011;26586;50.708;22.412;2022-11-09T01:25:34;13.80;;;8.52;;
40867;SDS011;26586;50.708;22.412;2022-11-09T01:28:01;12.95;;;8.63;;
40867;SDS011;26586;50.708;22.412;2022-11-09T01:30:28;12.88;;;7.85;;
40867;SDS011;26586;50.708;22.412;2022-11-09T01:32:54;13.38;;;8.60;;
40867;SDS011;26586;50.708;22.412;2022-11-09T01:35:21;14.53;;;8.90;;
40867;SDS011;26586;50.708;22.412;2022-11-09T01:37:47;11.15;;;7.72;;
40867;SDS011;26586;50.708;22.412;2022-11-09T01:40:13;12.27;;;8.60;;
40867;SDS011;26586;50.708;22.412;2022-11-09T01:42:39;11.35;;;7.55;;
40867;SDS011;26586;50.708;22.412;2022-11-09T01:47:48;12.27;;;7.88;;
40867;SDS011;26586;50.708;22.412;2022-11-09T01:50:56;13.07;;;8.48;;
40867;SDS011;26586;50.708;22.412;2022-11-09T01:53:28;13.13;;;7.55;;
40867;SDS011;26586;50.708;22.412;2022-11-09T01:55:57;11.75;;;7.57;;
40867;SDS011;26586;50.708;22.412;2022-11-09T01:58:29;13.25;;;7.80;;
40867;SDS011;26586;50.708;22.412;2022-11-09T02:00:58;12.57;;;6.90;;
40867;SDS011;26586;50.708;22.412;2022-11-09T02:03:30;12.32;;;7.20;;
40867;SDS011;26586;50.708;22.412;2022-11-09T02:06:01;11.65;;;7.40;;
40867;SDS011;26586;50.708;22.412;2022-11-09T02:08:30;12.80;;;7.55;;
40867;SDS011;26586;50.708;22.412;2022-11-09T02:11:13;9.80;;;7.40;;
40867;SDS011;26586;50.708;22.412;2022-11-09T02:13:43;11.95;;;7.95;;
40867;SDS011;26586;50.708;22.412;2022-11-09T02:16:16;13.13;;;8.18;;
40867;SDS011;26586;50.708;22.412;2022-11-09T02:18:48;10.13;;;7.13;;
40867;SDS011;26586;50.708;22.412;2022-11-09T02:21:20;12.02;;;6.43;;
40867;SDS011;26586;50.708;22.412;2022-11-09T02:23:47;9.07;;;6.50;;
40867;SDS011;26586;50.708;22.412;2022-11-09T02:26:57;11.82;;;7.38;;
40867;SDS011;26586;50.708;22.412;2022-11-09T02:29:24;9.50;;;6.55;;
40867;SDS011;26586;50.708;22.412;2022-11-09T02:31:54;8.93;;;5.97;;
40867;SDS011;26586;50.708;22.412;2022-11-09T02:34:23;11.25;;;7.10;;
40867;SDS011;26586;50.708;22.412;2022-11-09T02:36:50;11.23;;;6.55;;
40867;SDS011;26586;50.708;22.412;2022-11-09T02:39:17;10.18;;;6.43;;
40867;SDS011;26586;50.708;22.412;2022-11-09T02:42:18;9.23;;;6.25;;
40867;SDS011;26586;50.708;22.412;2022-11-09T02:44:40;9.23;;;6.20;;
40867;SDS011;26586;50.708;22.412;2022-11-09T02:47:12;8.82;;;5.90;;
40867;SDS011;26586;50.708;22.412;2022-11-09T02:49:38;8.55;;;5.90;;
40867;SDS011;26586;50.708;22.412;2022-11-09T02:52:05;12.80;;;5.73;;
40867;SDS011;26586;50.708;22.412;2022-11-09T02:54:31;10.30;;;6.68;;
40867;SDS011;26586;50.708;22.412;2022-11-09T02:56:57;7.37;;;5.40;;
40867;SDS011;26586;50.708;22.412;2022-11-09T02:59:23;10.20;;;6.22;;
40867;SDS011;26586;50.708;22.412;2022-11-09T03:01:50;8.57;;;5.67;;
40867;SDS011;26586;50.708;22.412;2022-11-09T03:04:16;10.27;;;5.90;;
40867;SDS011;26586;50.708;22.412;2022-11-09T03:06:42;11.00;;;5.57;;
40867;SDS011;26586;50.708;22.412;2022-11-09T03:09:08;7.53;;;5.50;;
40867;SDS011;26586;50.708;22.412;2022-11-09T03:11:37;8.70;;;5.93;;
40867;SDS011;26586;50.708;22.412;2022-11-09T03:14:04;7.55;;;5.07;;
40867;SDS011;26586;50.708;22.412;2022-11-09T03:16:31;7.47;;;5.38;;
40867;SDS011;26586;50.708;22.412;2022-11-09T03:18:57;8.38;;;5.43;;
40867;SDS011;26586;50.708;22.412;2022-11-09T03:21:24;8.15;;;5.60;;
40867;SDS011;26586;50.708;22.412;2022-11-09T03:23:50;9.48;;;5.05;;
40867;SDS011;26586;50.708;22.412;2022-11-09T03:26:16;8.32;;;5.97;;
40867;SDS011;26586;50.708;22.412;2022-11-09T03:28:42;9.65;;;5.60;;
40867;SDS011;26586;50.708;22.412;2022-11-09T03:31:09;7.93;;;5.30;;
40867;SDS011;26586;50.708;22.412;2022-11-09T03:33:35;7.88;;;5.43;;
40867;SDS011;26586;50.708;22.412;2022-11-09T03:36:01;8.25;;;5.28;;
40867;SDS011;26586;50.708;22.412;2022-11-09T03:38:28;7.70;;;5.10;;
40867;SDS011;26586;50.708;22.412;2022-11-09T03:40:54;9.30;;;5.28;;
40867;SDS011;26586;50.708;22.412;2022-11-09T03:43:23;8.93;;;5.20;;
40867;SDS011;26586;50.708;22.412;2022-11-09T03:45:49;8.47;;;5.30;;
40867;SDS011;26586;50.708;22.412;2022-11-09T03:48:15;8.15;;;4.70;;
40867;SDS011;26586;50.708;22.412;2022-11-09T03:50:41;7.90;;;5.50;;
40867;SDS011;26586;50.708;22.412;2022-11-09T03:53:08;7.75;;;5.07;;
40867;SDS011;26586;50.708;22.412;2022-11-09T03:58:02;8.65;;;5.47;;
40867;SDS011;26586;50.708;22.412;2022-11-09T04:00:29;8.25;;;5.30;;
40867;SDS011;26586;50.708;22.412;2022-11-09T04:02:55;8.82;;;5.47;;
40867;SDS011;26586;50.708;22.412;2022-11-09T04:05:22;9.40;;;4.97;;
40867;SDS011;26586;50.708;22.412;2022-11-09T04:07:49;8.55;;;5.45;;
40867;SDS011;26586;50.708;22.412;2022-11-09T04:10:17;7.32;;;5.05;;
40867;SDS011;26586;50.708;22.412;2022-11-09T04:12:44;8.63;;;5.05;;
40867;SDS011;26586;50.708;22.412;2022-11-09T04:15:11;8.15;;;5.35;;
40867;SDS011;26586;50.708;22.412;2022-11-09T04:17:38;9.18;;;5.57;;
40867;SDS011;26586;50.708;22.412;2022-11-09T04:20:06;7.18;;;5.43;;
40867;SDS011;26586;50.708;22.412;2022-11-09T04:22:32;9.57;;;5.13;;
40867;SDS011;26586;50.708;22.412;2022-11-09T04:24:59;10.48;;;7.35;;
40867;SDS011;26586;50.708;22.412;2022-11-09T04:27:25;10.77;;;6.38;;
40867;SDS011;26586;50.708;22.412;2022-11-09T04:29:51;6.53;;;5.20;;
40867;SDS011;26586;50.708;22.412;2022-11-09T04:32:17;9.15;;;6.00;;
40867;SDS011;26586;50.708;22.412;2022-11-09T04:34:44;7.03;;;5.80;;
40867;SDS011;26586;50.708;22.412;2022-11-09T04:37:10;10.00;;;7.22;;
40867;SDS011;26586;50.708;22.412;2022-11-09T04:39:36;10.40;;;6.87;;
40867;SDS011;26586;50.708;22.412;2022-11-09T04:42:03;8.02;;;5.28;;
40867;SDS011;26586;50.708;22.412;2022-11-09T04:44:29;7.00;;;5.03;;
40867;SDS011;26586;50.708;22.412;2022-11-09T04:46:55;8.45;;;4.75;;
40867;SDS011;26586;50.708;22.412;2022-11-09T04:49:22;7.77;;;5.47;;
40867;SDS011;26586;50.708;22.412;2022-11-09T04:51:48;9.32;;;6.93;;
40867;SDS011;26586;50.708;22.412;2022-11-09T04:54:14;11.83;;;8.10;;
40867;SDS011;26586;50.708;22.412;2022-11-09T04:56:40;12.32;;;9.15;;
40867;SDS011;26586;50.708;22.412;2022-11-09T04:59:07;10.33;;;6.63;;
40867;SDS011;26586;50.708;22.412;2022-11-09T05:01:33;10.90;;;7.10;;
40867;SDS011;26586;50.708;22.412;2022-11-09T05:03:59;9.30;;;7.63;;
40867;SDS011;26586;50.708;22.412;2022-11-09T05:06:25;9.60;;;8.00;;
40867;SDS011;26586;50.708;22.412;2022-11-09T05:09:03;9.95;;;6.13;;
40867;SDS011;26586;50.708;22.412;2022-11-09T05:11:31;7.43;;;5.13;;
40867;SDS011;26586;50.708;22.412;2022-11-09T05:13:59;10.35;;;6.10;;
40867;SDS011;26586;50.708;22.412;2022-11-09T05:16:26;7.55;;;6.15;;
40867;SDS011;26586;50.708;22.412;2022-11-09T05:18:53;9.38;;;6.15;;
40867;SDS011;26586;50.708;22.412;2022-11-09T05:21:19;9.73;;;6.22;;
40867;SDS011;26586;50.708;22.412;2022-11-09T05:23:46;9.57;;;6.05;;
40867;SDS011;26586;50.708;22.412;2022-11-09T05:26:34;9.00;;;5.80;;
40867;SDS011;26586;50.708;22.412;2022-11-09T05:29:09;8.93;;;6.82;;
40867;SDS011;26586;50.708;22.412;2022-11-09T05:31:37;8.00;;;5.00;;
40867;SDS011;26586;50.708;22.412;2022-11-09T05:34:04;9.95;;;6.00;;
40867;SDS011;26586;50.708;22.412;2022-11-09T05:38:58;8.27;;;5.65;;
40867;SDS011;26586;50.708;22.412;2022-11-09T05:41:25;9.68;;;6.18;;
40867;SDS011;26586;50.708;22.412;2022-11-09T05:43:52;9.10;;;7.03;;
40867;SDS011;26586;50.708;22.412;2022-11-09T05:46:18;17.83;;;9.80;;
40867;SDS011;26586;50.708;22.412;2022-11-09T05:48:45;17.15;;;11.68;;
40867;SDS011;26586;50.708;22.412;2022-11-09T05:51:12;15.48;;;10.65;;
40867;SDS011;26586;50.708;22.412;2022-11-09T05:53:39;10.13;;;8.05;;
40867;SDS011;26586;50.708;22.412;2022-11-09T05:56:06;10.70;;;7.53;;
40867;SDS011;26586;50.708;22.412;2022-11-09T05:58:34;7.90;;;5.85;;
40867;SDS011;26586;50.708;22.412;2022-11-09T06:01:06;8.73;;;5.90;;
40867;SDS011;26586;50.708;22.412;2022-11-09T06:03:34;9.55;;;6.15;;
40867;SDS011;26586;50.708;22.412;2022-11-09T06:06:04;8.35;;;5.57;;
40867;SDS011;26586;50.708;22.412;2022-11-09T06:08:32;8.30;;;4.97;;
40867;SDS011;26586;50.708;22.412;2022-11-09T06:11:02;10.32;;;5.93;;
40867;SDS011;26586;50.708;22.412;2022-11-09T06:13:30;7.72;;;5.10;;
40867;SDS011;26586;50.708;22.412;2022-11-09T06:15:57;6.85;;;4.60;;
40867;SDS011;26586;50.708;22.412;2022-11-09T06:18:25;6.85;;;4.93;;
40867;SDS011;26586;50.708;22.412;2022-11-09T06:20:54;6.38;;;4.45;;
40867;SDS011;26586;50.708;22.412;2022-11-09T06:23:22;7.35;;;4.80;;
40867;SDS011;26586;50.708;22.412;2022-11-09T06:25:55;7.10;;;4.60;;
40867;SDS011;26586;50.708;22.412;2022-11-09T06:28:34;11.55;;;5.10;;
40867;SDS011;26586;50.708;22.412;2022-11-09T06:31:02;9.07;;;4.90;;
40867;SDS011;26586;50.708;22.412;2022-11-09T06:33:30;7.18;;;3.92;;
40867;SDS011;26586;50.708;22.412;2022-11-09T06:35:58;8.52;;;4.68;;
40867;SDS011;26586;50.708;22.412;2022-11-09T06:38:24;8.00;;;4.38;;
40867;SDS011;26586;50.708;22.412;2022-11-09T06:40:51;6.32;;;4.00;;
40867;SDS011;26586;50.708;22.412;2022-11-09T06:43:18;7.45;;;5.18;;
40867;SDS011;26586;50.708;22.412;2022-11-09T06:45:45;7.40;;;4.80;;
40867;SDS011;26586;50.708;22.412;2022-11-09T06:48:11;6.65;;;4.40;;
40867;SDS011;26586;50.708;22.412;2022-11-09T06:50:37;7.65;;;4.70;;
40867;SDS011;26586;50.708;22.412;2022-11-09T06:53:05;7.47;;;4.97;;
40867;SDS011;26586;50.708;22.412;2022-11-09T06:55:34;7.95;;;4.28;;
40867;SDS011;26586;50.708;22.412;2022-11-09T06:58:07;6.60;;;4.65;;
40867;SDS011;26586;50.708;22.412;2022-11-09T07:00:35;6.38;;;4.28;;
40867;SDS011;26586;50.708;22.412;2022-11-09T07:03:02;7.25;;;4.55;;
40867;SDS011;26586;50.708;22.412;2022-11-09T07:05:29;7.70;;;5.18;;
40867;SDS011;26586;50.708;22.412;2022-11-09T07:07:55;7.47;;;4.77;;
40867;SDS011;26586;50.708;22.412;2022-11-09T07:10:22;9.00;;;5.05;;
40867;SDS011;26586;50.708;22.412;2022-11-09T07:15:15;16.33;;;7.82;;
40867;SDS011;26586;50.708;22.412;2022-11-09T07:17:43;10.43;;;6.63;;
40867;SDS011;26586;50.708;22.412;2022-11-09T07:20:09;13.60;;;8.00;;
40867;SDS011;26586;50.708;22.412;2022-11-09T07:25:06;7.75;;;5.32;;
40867;SDS011;26586;50.708;22.412;2022-11-09T07:27:34;9.32;;;6.57;;
40867;SDS011;26586;50.708;22.412;2022-11-09T07:30:00;13.55;;;7.65;;
40867;SDS011;26586;50.708;22.412;2022-11-09T07:32:31;11.05;;;8.73;;
40867;SDS011;26586;50.708;22.412;2022-11-09T07:34:58;11.60;;;7.55;;
40867;SDS011;26586;50.708;22.412;2022-11-09T07:37:24;8.57;;;6.23;;
40867;SDS011;26586;50.708;22.412;2022-11-09T07:39:50;7.47;;;5.35;;
40867;SDS011;26586;50.708;22.412;2022-11-09T07:42:17;12.90;;;6.90;;
40867;SDS011;26586;50.708;22.412;2022-11-09T07:44:43;10.85;;;7.72;;
40867;SDS011;26586;50.708;22.412;2022-11-09T07:47:10;11.53;;;7.97;;
40867;SDS011;26586;50.708;22.412;2022-11-09T07:49:36;9.88;;;7.43;;
40867;SDS011;26586;50.708;22.412;2022-11-09T07:52:03;9.25;;;6.50;;
40867;SDS011;26586;50.708;22.412;2022-11-09T07:54:29;7.60;;;5.03;;
40867;SDS011;26586;50.708;22.412;2022-11-09T07:56:55;11.30;;;5.57;;
40867;SDS011;26586;50.708;22.412;2022-11-09T07:59:21;9.52;;;6.35;;
40867;SDS011;26586;50.708;22.412;2022-11-09T08:01:48;9.88;;;7.38;;
40867;SDS011;26586;50.708;22.412;2022-11-09T08:04:14;9.75;;;6.18;;
40867;SDS011;26586;50.708;22.412;2022-11-09T08:06:40;8.82;;;4.78;;
40867;SDS011;26586;50.708;22.412;2022-11-09T08:09:06;8.98;;;6.35;;
40867;SDS011;26586;50.708;22.412;2022-11-09T08:11:33;11.97;;;8.53;;
40867;SDS011;26586;50.708;22.412;2022-11-09T08:13:59;13.05;;;8.20;;
40867;SDS011;26586;50.708;22.412;2022-11-09T08:16:25;11.27;;;8.13;;
40867;SDS011;26586;50.708;22.412;2022-11-09T08:18:51;9.98;;;5.72;;
40867;SDS011;26586;50.708;22.412;2022-11-09T08:21:18;9.10;;;4.53;;
40867;SDS011;26586;50.708;22.412;2022-11-09T08:23:44;10.75;;;5.75;;
40867;SDS011;26586;50.708;22.412;2022-11-09T08:26:10;7.68;;;5.72;;
40867;SDS011;26586;50.708;22.412;2022-11-09T08:28:36;10.90;;;7.90;;
40867;SDS011;26586;50.708;22.412;2022-11-09T08:31:05;7.87;;;5.47;;
40867;SDS011;26586;50.708;22.412;2022-11-09T08:33:34;9.18;;;5.97;;
40867;SDS011;26586;50.708;22.412;2022-11-09T08:36:11;6.85;;;3.70;;
40867;SDS011;26586;50.708;22.412;2022-11-09T08:41:08;6.20;;;3.65;;
40867;SDS011;26586;50.708;22.412;2022-11-09T08:43:35;10.90;;;5.70;;
40867;SDS011;26586;50.708;22.412;2022-11-09T08:46:02;6.97;;;4.80;;
40867;SDS011;26586;50.708;22.412;2022-11-09T08:48:28;6.13;;;4.22;;
40867;SDS011;26586;50.708;22.412;2022-11-09T08:50:56;7.85;;;4.85;;
40867;SDS011;26586;50.708;22.412;2022-11-09T08:53:24;11.98;;;7.00;;
40867;SDS011;26586;50.708;22.412;2022-11-09T08:55:52;5.75;;;3.90;;
40867;SDS011;26586;50.708;22.412;2022-11-09T08:58:18;22.75;;;17.48;;
40867;SDS011;26586;50.708;22.412;2022-11-09T09:00:45;7.25;;;5.22;;
40867;SDS011;26586;50.708;22.412;2022-11-09T09:03:11;8.32;;;4.53;;
40867;SDS011;26586;50.708;22.412;2022-11-09T09:05:38;8.80;;;6.65;;
40867;SDS011;26586;50.708;22.412;2022-11-09T09:08:04;14.25;;;6.82;;
40867;SDS011;26586;50.708;22.412;2022-11-09T09:10:32;10.70;;;9.38;;
40867;SDS011;26586;50.708;22.412;2022-11-09T09:13:00;5.75;;;3.42;;
40867;SDS011;26586;50.708;22.412;2022-11-09T09:15:27;8.35;;;7.18;;
40867;SDS011;26586;50.708;22.412;2022-11-09T09:17:54;8.80;;;5.82;;
40867;SDS011;26586;50.708;22.412;2022-11-09T09:20:20;6.15;;;4.15;;
40867;SDS011;26586;50.708;22.412;2022-11-09T09:22:46;21.63;;;11.20;;
40867;SDS011;26586;50.708;22.412;2022-11-09T09:25:13;7.38;;;4.32;;
40867;SDS011;26586;50.708;22.412;2022-11-09T09:27:39;5.82;;;3.30;;
40867;SDS011;26586;50.708;22.412;2022-11-09T09:30:05;5.32;;;3.25;;
40867;SDS011;26586;50.708;22.412;2022-11-09T09:32:32;5.35;;;3.17;;
40867;SDS011;26586;50.708;22.412;2022-11-09T09:34:58;6.60;;;3.25;;
40867;SDS011;26586;50.708;22.412;2022-11-09T09:37:24;5.90;;;3.10;;
40867;SDS011;26586;50.708;22.412;2022-11-09T09:39:51;4.97;;;2.97;;
40867;SDS011;26586;50.708;22.412;2022-11-09T09:42:18;4.90;;;3.13;;
40867;SDS011;26586;50.708;22.412;2022-11-09T09:45:00;6.53;;;3.70;;
40867;SDS011;26586;50.708;22.412;2022-11-09T09:53:30;31.90;;;17.20;;
40867;SDS011;26586;50.708;22.412;2022-11-09T09:56:18;9.32;;;4.82;;
40867;SDS011;26586;50.708;22.412;2022-11-09T10:01:39;14.60;;;9.40;;
40867;SDS011;26586;50.708;22.412;2022-11-09T10:04:21;20.25;;;14.55;;
40867;SDS011;26586;50.708;22.412;2022-11-09T10:09:37;8.10;;;5.45;;
40867;SDS011;26586;50.708;22.412;2022-11-09T10:14:54;9.35;;;5.55;;
40867;SDS011;26586;50.708;22.412;2022-11-09T10:18:01;5.65;;;3.10;;
40867;SDS011;26586;50.708;22.412;2022-11-09T10:23:34;5.88;;;3.30;;
40867;SDS011;26586;50.708;22.412;2022-11-09T10:28:55;6.00;;;3.95;;
40867;SDS011;26586;50.708;22.412;2022-11-09T10:31:24;5.20;;;2.60;;
40867;SDS011;26586;50.708;22.412;2022-11-09T10:33:59;6.22;;;3.80;;
40867;SDS011;26586;50.708;22.412;2022-11-09T10:36:41;7.28;;;4.65;;
40867;SDS011;26586;50.708;22.412;2022-11-09T10:39:16;6.82;;;4.93;;
40867;SDS011;26586;50.708;22.412;2022-11-09T10:41:43;7.70;;;4.93;;
40867;SDS011;26586;50.708;22.412;2022-11-09T10:44:14;8.50;;;2.80;;
40867;SDS011;26586;50.708;22.412;2022-11-09T10:50:05;6.80;;;2.67;;
40867;SDS011;26586;50.708;22.412;2022-11-09T10:52:38;3.42;;;2.05;;
40867;SDS011;26586;50.708;22.412;2022-11-09T10:55:14;4.45;;;2.70;;
40867;SDS011;26586;50.708;22.412;2022-11-09T10:58:02;3.03;;;1.90;;
40867;SDS011;26586;50.708;22.412;2022-11-09T11:01:03;4.15;;;1.88;;
40867;SDS011;26586;50.708;22.412;2022-11-09T11:03:32;15.40;;;9.15;;
40867;SDS011;26586;50.708;22.412;2022-11-09T11:08:39;5.65;;;3.97;;
40867;SDS011;26586;50.708;22.412;2022-11-09T11:13:41;7.70;;;4.30;;
40867;SDS011;26586;50.708;22.412;2022-11-09T11:18:46;363.40;;;176.98;;
40867;SDS011;26586;50.708;22.412;2022-11-09T11:21:20;42.10;;;26.27;;
40867;SDS011;26586;50.708;22.412;2022-11-09T11:26:52;43.33;;;27.17;;
40867;SDS011;26586;50.708;22.412;2022-11-09T11:29:27;63.95;;;26.55;;
40867;SDS011;26586;50.708;22.412;2022-11-09T11:32:15;54.53;;;21.17;;
40867;SDS011;26586;50.708;22.412;2022-11-09T11:34:43;50.55;;;16.75;;
40867;SDS011;26586;50.708;22.412;2022-11-09T11:56:27;11.32;;;4.60;;
40867;SDS011;26586;50.708;22.412;2022-11-09T12:07:30;33.75;;;16.08;;
40867;SDS011;26586;50.708;22.412;2022-11-09T12:13:02;13.25;;;7.55;;
40867;SDS011;26586;50.708;22.412;2022-11-09T12:18:25;11.95;;;6.28;;
40867;SDS011;26586;50.708;22.412;2022-11-09T12:23:58;15.48;;;5.72;;
40867;SDS011;26586;50.708;22.412;2022-11-09T12:26:49;16.95;;;6.78;;
40867;SDS011;26586;50.708;22.412;2022-11-09T12:29:36;28.85;;;12.57;;
40867;SDS011;26586;50.708;22.412;2022-11-09T12:34:56;10.07;;;7.07;;
40867;SDS011;26586;50.708;22.412;2022-11-09T12:43:32;29.17;;;10.57;;
40867;SDS011;26586;50.708;22.412;2022-11-09T12:45:39;31.42;;;10.93;;
40867;SDS011;26586;50.708;22.412;2022-11-09T12:50:53;15.98;;;6.80;;
40867;SDS011;26586;50.708;22.412;2022-11-09T12:53:21;37.67;;;18.15;;
40867;SDS011;26586;50.708;22.412;2022-11-09T12:55:53;4.60;;;3.08;;
40867;SDS011;26586;50.708;22.412;2022-11-09T12:58:34;15.75;;;7.47;;
40867;SDS011;26586;50.708;22.412;2022-11-09T13:03:59;15.40;;;6.37;;
40867;SDS011;26586;50.708;22.412;2022-11-09T13:06:28;12.27;;;5.68;;
40867;SDS011;26586;50.708;22.412;2022-11-09T13:08:56;6.10;;;3.83;;
40867;SDS011;26586;50.708;22.412;2022-11-09T13:11:44;22.92;;;9.73;;
40867;SDS011;26586;50.708;22.412;2022-11-09T13:24:59;8.98;;;5.05;;
40867;SDS011;26586;50.708;22.412;2022-11-09T13:27:45;11.18;;;5.80;;
40867;SDS011;26586;50.708;22.412;2022-11-09T13:38:21;6.53;;;4.35;;
40867;SDS011;26586;50.708;22.412;2022-11-09T13:40:49;5.38;;;3.28;;
40867;SDS011;26586;50.708;22.412;2022-11-09T13:43:23;5.28;;;3.25;;
40867;SDS011;26586;50.708;22.412;2022-11-09T13:45:57;6.22;;;4.00;;
40867;SDS011;26586;50.708;22.412;2022-11-09T13:48:44;8.60;;;4.93;;
40867;SDS011;26586;50.708;22.412;2022-11-09T13:51:22;20.15;;;9.75;;
40867;SDS011;26586;50.708;22.412;2022-11-09T13:54:04;13.20;;;7.30;;
40867;SDS011;26586;50.708;22.412;2022-11-09T13:56:50;24.70;;;11.05;;
40867;SDS011;26586;50.708;22.412;2022-11-09T14:01:57;9.73;;;4.70;;
40867;SDS011;26586;50.708;22.412;2022-11-09T14:12:26;11.25;;;6.90;;
40867;SDS011;26586;50.708;22.412;2022-11-09T14:18:11;16.85;;;8.57;;
40867;SDS011;26586;50.708;22.412;2022-11-09T14:20:52;14.25;;;8.65;;
40867;SDS011;26586;50.708;22.412;2022-11-09T14:23:32;12.75;;;8.63;;
40867;SDS011;26586;50.708;22.412;2022-11-09T14:28:40;6.38;;;4.72;;
40867;SDS011;26586;50.708;22.412;2022-11-09T14:31:25;10.93;;;6.95;;
40867;SDS011;26586;50.708;22.412;2022-11-09T14:33:57;11.85;;;7.35;;
40867;SDS011;26586;50.708;22.412;2022-11-09T14:36:27;13.93;;;7.68;;
40867;SDS011;26586;50.708;22.412;2022-11-09T14:38:55;13.18;;;7.72;;
40867;SDS011;26586;50.708;22.412;2022-11-09T14:41:23;17.80;;;10.73;;
40867;SDS011;26586;50.708;22.412;2022-11-09T14:43:52;12.40;;;6.88;;
40867;SDS011;26586;50.708;22.412;2022-11-09T14:46:21;13.55;;;8.25;;
40867;SDS011;26586;50.708;22.412;2022-11-09T14:48:54;12.45;;;7.85;;
40867;SDS011;26586;50.708;22.412;2022-11-09T14:51:38;24.35;;;14.07;;
40867;SDS011;26586;50.708;22.412;2022-11-09T14:54:05;24.65;;;14.60;;
40867;SDS011;26586;50.708;22.412;2022-11-09T14:56:37;25.40;;;14.75;;
40867;SDS011;26586;50.708;22.412;2022-11-09T14:59:06;21.23;;;14.00;;
40867;SDS011;26586;50.708;22.412;2022-11-09T15:01:36;35.53;;;16.67;;
40867;SDS011;26586;50.708;22.412;2022-11-09T15:04:13;24.92;;;14.27;;
40867;SDS011;26586;50.708;22.412;2022-11-09T15:06:59;35.88;;;20.38;;
40867;SDS011;26586;50.708;22.412;2022-11-09T15:09:32;38.72;;;18.08;;
40867;SDS011;26586;50.708;22.412;2022-11-09T15:12:12;34.30;;;16.55;;
40867;SDS011;26586;50.708;22.412;2022-11-09T15:14:49;30.10;;;16.80;;
40867;SDS011;26586;50.708;22.412;2022-11-09T15:17:22;21.20;;;11.70;;
40867;SDS011;26586;50.708;22.412;2022-11-09T15:19:54;40.95;;;25.85;;
40867;SDS011;26586;50.708;22.412;2022-11-09T15:25:31;21.27;;;12.60;;
40867;SDS011;26586;50.708;22.412;2022-11-09T15:28:21;56.60;;;35.67;;
40867;SDS011;26586;50.708;22.412;2022-11-09T15:35:56;58.97;;;38.33;;
40867;SDS011;26586;50.708;22.412;2022-11-09T15:38:34;85.07;;;42.40;;
40867;SDS011;26586;50.708;22.412;2022-11-09T15:41:07;127.28;;;55.65;;
40867;SDS011;26586;50.708;22.412;2022-11-09T15:43:36;107.35;;;50.25;;
40867;SDS011;26586;50.708;22.412;2022-11-09T15:46:02;107.72;;;46.17;;
40867;SDS011;26586;50.708;22.412;2022-11-09T15:48:29;119.78;;;58.00;;
40867;SDS011;26586;50.708;22.412;2022-11-09T15:50:56;149.43;;;87.35;;
40867;SDS011;26586;50.708;22.412;2022-11-09T15:53:22;155.13;;;75.03;;
40867;SDS011;26586;50.708;22.412;2022-11-09T15:55:48;203.63;;;85.28;;
40867;SDS011;26586;50.708;22.412;2022-11-09T15:58:16;239.80;;;120.22;;
40867;SDS011;26586;50.708;22.412;2022-11-09T16:00:43;156.23;;;77.55;;
40867;SDS011;26586;50.708;22.412;2022-11-09T16:03:10;124.18;;;69.40;;
40867;SDS011;26586;50.708;22.412;2022-11-09T16:05:37;110.20;;;57.10;;
40867;SDS011;26586;50.708;22.412;2022-11-09T16:08:03;87.10;;;48.40;;
40867;SDS011;26586;50.708;22.412;2022-11-09T16:10:32;91.20;;;45.08;;
40867;SDS011;26586;50.708;22.412;2022-11-09T16:13:02;62.65;;;34.47;;
40867;SDS011;26586;50.708;22.412;2022-11-09T16:15:29;46.90;;;31.73;;
40867;SDS011;26586;50.708;22.412;2022-11-09T16:17:56;55.10;;;31.42;;
40867;SDS011;26586;50.708;22.412;2022-11-09T16:20:22;45.92;;;27.60;;
40867;SDS011;26586;50.708;22.412;2022-11-09T16:22:49;38.72;;;24.52;;
40867;SDS011;26586;50.708;22.412;2022-11-09T16:25:15;38.70;;;24.08;;
40867;SDS011;26586;50.708;22.412;2022-11-09T16:27:41;34.28;;;23.58;;
40867;SDS011;26586;50.708;22.412;2022-11-09T16:30:08;25.83;;;18.60;;
40867;SDS011;26586;50.708;22.412;2022-11-09T16:35:02;24.25;;;16.23;;
40867;SDS011;26586;50.708;22.412;2022-11-09T16:37:30;28.40;;;19.25;;
40867;SDS011;26586;50.708;22.412;2022-11-09T16:39:59;56.33;;;32.47;;
40867;SDS011;26586;50.708;22.412;2022-11-09T16:42:26;51.33;;;31.83;;
40867;SDS011;26586;50.708;22.412;2022-11-09T16:44:52;47.40;;;28.92;;
40867;SDS011;26586;50.708;22.412;2022-11-09T16:47:23;31.67;;;20.15;;
40867;SDS011;26586;50.708;22.412;2022-11-09T16:49:49;32.35;;;20.20;;
40867;SDS011;26586;50.708;22.412;2022-11-09T16:52:15;28.63;;;18.08;;
40867;SDS011;26586;50.708;22.412;2022-11-09T16:54:42;36.83;;;24.50;;
40867;SDS011;26586;50.708;22.412;2022-11-09T16:57:08;37.15;;;23.15;;
40867;SDS011;26586;50.708;22.412;2022-11-09T16:59:34;45.20;;;25.10;;
40867;SDS011;26586;50.708;22.412;2022-11-09T17:02:00;42.50;;;24.73;;
40867;SDS011;26586;50.708;22.412;2022-11-09T17:04:27;36.67;;;23.80;;
40867;SDS011;26586;50.708;22.412;2022-11-09T17:06:53;44.20;;;23.33;;
40867;SDS011;26586;50.708;22.412;2022-11-09T17:09:19;45.17;;;26.10;;
40867;SDS011;26586;50.708;22.412;2022-11-09T17:11:46;47.23;;;28.77;;
40867;SDS011;26586;50.708;22.412;2022-11-09T17:14:12;58.95;;;36.10;;